createdAt,value
2023-04-01T00:02:30.539Z,10.71
2023-04-01T00:08:32.962Z,10.67
2023-04-01T00:14:35.812Z,10.90
2023-04-01T00:20:39.405Z,10.81
2023-04-01T00:26:43.217Z,10.69
2023-04-01T00:32:45.630Z,10.84
2023-04-01T00:38:48.154Z,10.51
2023-04-01T00:44:53.493Z,10.87
2023-04-01T00:51:10.306Z,10.70
2023-04-01T00:57:37.661Z,10.61
2023-04-01T01:03:39.642Z,10.52
2023-04-01T01:10:03.863Z,10.49
2023-04-01T01:16:32.857Z,10.50
2023-04-01T01:23:00.594Z,10.48
2023-04-01T01:29:21.344Z,10.44
2023-04-01T01:35:31.173Z,10.64
2023-04-01T01:41:35.674Z,10.83
2023-04-01T01:47:38.564Z,10.45
2023-04-01T01:53:40.522Z,10.62
2023-04-01T01:59:46.342Z,10.38
2023-04-01T02:05:50.820Z,10.54
2023-04-01T02:11:55.721Z,10.75
2023-04-01T02:17:58.440Z,10.60
2023-04-01T02:24:05.538Z,10.54
2023-04-01T02:30:08.780Z,10.52
2023-04-01T02:36:15.627Z,10.36
2023-04-01T02:42:17.586Z,10.43
2023-04-01T02:48:19.499Z,10.47
2023-04-01T02:54:21.867Z,10.29
2023-04-01T03:00:23.876Z,10.37
2023-04-01T03:06:26.002Z,10.31
2023-04-01T03:12:27.884Z,10.32
2023-04-01T03:18:29.935Z,10.30
2023-04-01T03:24:31.850Z,10.19
2023-04-01T03:30:34.695Z,10.33
2023-04-01T03:36:36.658Z,10.15
2023-04-01T03:42:38.727Z,10.27
2023-04-01T03:48:40.740Z,10.24
2023-04-01T03:54:42.634Z,10.41
2023-04-01T04:00:44.638Z,10.49
2023-04-01T04:06:46.522Z,10.27
2023-04-01T04:12:49.933Z,10.12
2023-04-01T04:18:52.469Z,10.29
2023-04-01T04:24:54.652Z,9.97
2023-04-01T04:30:56.833Z,10.04
2023-04-01T04:36:58.816Z,10.32
2023-04-01T04:43:00.707Z,10.38
2023-04-01T04:49:02.605Z,10.15
2023-04-01T04:55:05.170Z,10.29
2023-04-01T05:01:16.845Z,10.06
2023-04-01T05:07:18.757Z,10.01
2023-04-01T05:13:20.735Z,9.91
2023-04-01T05:19:22.694Z,10.12
2023-04-01T05:25:24.636Z,9.96
2023-04-01T05:31:26.693Z,10.07
2023-04-01T05:37:28.699Z,10.07
2023-04-01T05:43:31.189Z,10.02
2023-04-01T05:49:34.778Z,10.11
2023-04-01T05:55:37.423Z,10.24
2023-04-01T06:01:40.441Z,10.49
2023-04-01T06:07:42.638Z,10.63
2023-04-01T06:14:17.032Z,10.95
2023-04-01T06:20:28.259Z,11.09
2023-04-01T06:26:40.460Z,11.40
2023-04-01T06:33:34.298Z,11.24
2023-04-01T06:40:24.337Z,11.26
2023-04-01T06:46:56.145Z,11.22
2023-04-01T06:53:47.840Z,11.41
2023-04-01T06:59:51.853Z,11.63
2023-04-01T07:05:57.743Z,11.61
2023-04-01T07:12:11.756Z,11.66
2023-04-01T07:18:31.350Z,11.61
2023-04-01T07:24:41.572Z,11.71
2023-04-01T07:31:17.478Z,11.90
2023-04-01T07:37:43.044Z,11.99
2023-04-01T07:44:14.458Z,12.15
2023-04-01T07:50:54.732Z,12.28
2023-04-01T07:57:25.805Z,12.36
2023-04-01T08:03:58.259Z,12.15
2023-04-01T08:10:34.910Z,12.18
2023-04-01T08:16:54.405Z,12.12
2023-04-01T08:23:23.762Z,12.27
2023-04-01T08:30:03.073Z,12.27
2023-04-01T08:36:18.244Z,12.57
2023-04-01T08:43:18.120Z,12.66
2023-04-01T08:50:07.316Z,12.63
2023-04-01T08:56:27.294Z,12.74
2023-04-01T09:03:05.269Z,12.64
2023-04-01T09:09:19.264Z,12.68
2023-04-01T09:15:55.711Z,12.80
2023-04-01T09:22:09.184Z,13.14
2023-04-01T09:28:48.882Z,13.04
2023-04-01T09:35:12.269Z,12.88
2023-04-01T09:41:33.440Z,12.91
2023-04-01T09:48:02.023Z,13.16
2023-04-01T09:54:36.172Z,12.86
2023-04-01T10:01:10.787Z,13.19
2023-04-01T10:08:10.116Z,13.12
2023-04-01T10:14:35.899Z,13.04
2023-04-01T10:20:54.778Z,13.10
2023-04-01T10:27:31.661Z,13.21
2023-04-01T10:33:59.485Z,13.25
2023-04-01T10:40:25.294Z,13.48
2023-04-01T10:47:04.690Z,13.33
2023-04-01T10:53:40.504Z,13.49
2023-04-01T11:00:07.602Z,13.45
2023-04-01T11:06:40.223Z,13.22
2023-04-01T11:13:06.697Z,13.16
2023-04-01T11:19:23.497Z,13.03
2023-04-01T11:26:16.165Z,13.13
2023-04-01T11:33:10.199Z,13.31
2023-04-01T11:39:42.320Z,13.12
2023-04-01T11:45:51.497Z,12.78
2023-04-01T11:52:24.019Z,12.54
2023-04-01T11:58:50.839Z,12.55
2023-04-01T12:05:14.181Z,13.25
2023-04-01T12:12:10.800Z,13.78
2023-04-01T12:18:27.344Z,14.62
2023-04-01T12:25:46.856Z,14.94
2023-04-01T12:32:21.076Z,14.80
2023-04-01T12:38:31.745Z,14.69
2023-04-01T12:44:53.911Z,15.15
2023-04-01T12:51:20.154Z,15.12
2023-04-01T12:57:51.758Z,14.68
2023-04-01T13:04:21.517Z,14.34
2023-04-01T13:10:52.921Z,14.18
2023-04-01T13:17:23.878Z,13.67
2023-04-01T13:23:53.326Z,13.04
2023-04-01T13:30:34.725Z,12.50
2023-04-01T13:36:48.260Z,12.88
2023-04-01T13:43:02.149Z,13.28
2023-04-01T13:49:53.874Z,13.73
2023-04-01T13:56:27.496Z,14.02
2023-04-01T14:03:04.438Z,13.90
2023-04-01T14:09:45.879Z,14.10
2023-04-01T14:16:11.905Z,13.86
2023-04-01T14:22:58.531Z,13.93
2023-04-01T14:29:06.102Z,13.78
2023-04-01T14:35:22.596Z,13.77
2023-04-01T14:41:50.146Z,13.33
2023-04-01T14:48:29.849Z,13.33
2023-04-01T14:54:39.076Z,13.35
2023-04-01T15:00:43.625Z,13.26
2023-04-01T15:07:01.667Z,13.07
2023-04-01T15:13:23.913Z,13.08
2023-04-01T15:19:56.569Z,13.29
2023-04-01T15:26:31.245Z,13.24
2023-04-01T15:33:31.042Z,13.31
2023-04-01T15:39:56.394Z,13.25
2023-04-01T15:46:23.044Z,13.12
2023-04-01T15:52:57.822Z,12.70
2023-04-01T15:59:39.469Z,12.40
2023-04-01T16:06:15.508Z,12.13
2023-04-01T16:12:52.761Z,11.86
2023-04-01T16:19:38.087Z,11.81
2023-04-01T16:26:43.717Z,11.78
2023-04-01T16:33:12.618Z,11.72
2023-04-01T16:39:47.544Z,11.61
2023-04-01T16:46:15.681Z,11.52
2023-04-01T16:53:02.137Z,11.49
2023-04-01T16:59:11.755Z,11.40
2023-04-01T17:05:14.233Z,11.29
2023-04-01T17:11:53.567Z,11.28
2023-04-01T17:18:36.131Z,11.20
2023-04-01T17:25:04.916Z,11.05
2023-04-01T17:31:22.329Z,10.90
2023-04-01T17:37:50.238Z,10.89
2023-04-01T17:44:31.931Z,10.87
2023-04-01T17:51:14.127Z,10.81
2023-04-01T17:57:34.409Z,10.78
2023-04-01T18:04:00.471Z,10.63
2023-04-01T18:10:34.795Z,10.56
2023-04-01T18:16:50.730Z,10.56
2023-04-01T18:22:58.263Z,10.52
2023-04-01T18:29:37.237Z,10.52
2023-04-01T18:36:10.482Z,10.49
2023-04-01T18:42:54.444Z,10.53
2023-04-01T18:49:17.800Z,10.42
2023-04-01T18:55:44.090Z,10.51
2023-04-01T19:02:12.434Z,10.30
2023-04-01T19:08:34.662Z,10.20
2023-04-01T19:14:51.408Z,10.07
2023-04-01T19:21:19.580Z,9.82
2023-04-01T19:27:50.131Z,9.85
2023-04-01T19:34:41.291Z,9.63
2023-04-01T19:41:02.868Z,9.45
2023-04-01T19:47:51.574Z,9.36
2023-04-01T19:54:08.343Z,9.02
2023-04-01T20:00:35.480Z,9.01
2023-04-01T20:07:08.519Z,8.99
2023-04-01T20:13:22.452Z,8.75
2023-04-01T20:19:46.172Z,8.88
2023-04-01T20:26:03.848Z,8.84
2023-04-01T20:32:42.962Z,8.60
2023-04-01T20:39:34.884Z,8.41
2023-04-01T20:45:54.452Z,8.28
2023-04-01T20:52:14.404Z,8.29
2023-04-01T20:58:47.236Z,8.18
2023-04-01T21:05:33.575Z,8.11
2023-04-01T21:12:01.563Z,8.01
2023-04-01T21:18:54.726Z,7.87
2023-04-01T21:25:43.246Z,7.61
2023-04-01T21:31:59.984Z,7.72
2023-04-01T21:38:24.123Z,7.68
2023-04-01T21:44:40.373Z,7.64
2023-04-01T21:50:54.827Z,7.53
2023-04-01T21:57:31.308Z,7.45
2023-04-01T22:03:33.132Z,7.56
2023-04-01T22:10:26.693Z,7.43
2023-04-01T22:16:49.597Z,7.41
2023-04-01T22:23:30.015Z,7.31
2023-04-01T22:30:06.505Z,7.24
2023-04-01T22:36:37.484Z,7.21
2023-04-01T22:42:48.879Z,6.99
2023-04-01T22:49:02.723Z,6.99
2023-04-01T22:55:24.405Z,6.75
2023-04-01T23:01:34.265Z,6.90
2023-04-01T23:08:01.451Z,6.89
2023-04-01T23:14:21.296Z,6.95
2023-04-01T23:20:38.020Z,6.86
2023-04-01T23:26:39.785Z,6.92
2023-04-01T23:32:41.747Z,6.60
2023-04-01T23:38:48.723Z,6.61
2023-04-01T23:44:54.685Z,6.53
2023-04-01T23:50:58.504Z,6.51
2023-04-01T23:57:05.239Z,6.37
